createdAt,value
2023-02-24T00:02:07.087Z,10.87
2023-02-24T00:04:41.673Z,10.77
2023-02-24T00:07:11.426Z,10.73
2023-02-24T00:09:40.542Z,10.70
2023-02-24T00:12:13.982Z,10.62
2023-02-24T00:14:46.781Z,10.55
2023-02-24T00:17:15.667Z,10.54
2023-02-24T00:19:44.442Z,10.52
2023-02-24T00:22:14.188Z,10.49
2023-02-24T00:24:42.966Z,10.38
2023-02-24T00:27:14.375Z,10.31
2023-02-24T00:29:42.787Z,10.30
2023-02-24T00:32:13.837Z,10.25
2023-02-24T00:34:42.994Z,10.17
2023-02-24T00:37:11.433Z,10.07
2023-02-24T00:39:42.437Z,9.99
2023-02-24T00:42:10.787Z,9.93
2023-02-24T00:44:45.111Z,9.91
2023-02-24T00:47:14.522Z,9.88
2023-02-24T00:49:43.703Z,9.83
2023-02-24T00:52:22.011Z,9.77
2023-02-24T00:54:51.773Z,9.77
2023-02-24T00:57:22.115Z,9.78
2023-02-24T00:59:52.531Z,9.75
2023-02-24T01:02:22.255Z,9.75
2023-02-24T01:04:51.941Z,9.73
2023-02-24T01:07:20.325Z,9.72
2023-02-24T01:09:51.474Z,9.67
2023-02-24T01:12:38.173Z,9.59
2023-02-24T01:15:09.900Z,9.54
2023-02-24T01:17:38.961Z,9.49
2023-02-24T01:20:23.122Z,9.46
2023-02-24T01:22:58.472Z,9.40
2023-02-24T01:25:27.757Z,9.37
2023-02-24T01:27:56.001Z,9.37
2023-02-24T01:30:24.447Z,9.36
2023-02-24T01:32:53.855Z,9.37
2023-02-24T01:35:22.199Z,9.38
2023-02-24T01:37:50.758Z,9.38
2023-02-24T01:40:21.982Z,9.38
2023-02-24T01:42:51.096Z,9.37
2023-02-24T01:45:23.644Z,9.38
2023-02-24T01:47:52.846Z,9.37
2023-02-24T01:50:29.135Z,9.34
2023-02-24T01:53:02.445Z,9.29
2023-02-24T01:55:52.959Z,9.24
2023-02-24T01:58:26.401Z,9.11
2023-02-24T02:00:54.838Z,9.00
2023-02-24T02:03:33.686Z,8.88
2023-02-24T02:06:08.510Z,8.76
2023-02-24T02:08:38.047Z,8.67
2023-02-24T02:11:09.930Z,8.62
2023-02-24T02:13:43.949Z,8.62
2023-02-24T02:16:32.995Z,8.60
2023-02-24T02:19:22.548Z,8.57
2023-02-24T02:22:09.444Z,8.56
2023-02-24T02:25:08.365Z,8.59
2023-02-24T02:28:17.462Z,8.55
2023-02-24T02:31:21.215Z,8.50
2023-02-24T02:33:55.860Z,8.50
2023-02-24T02:36:33.647Z,8.50
2023-02-24T02:39:17.790Z,8.52
2023-02-24T02:42:19.789Z,8.60
2023-02-24T02:44:57.075Z,8.62
2023-02-24T02:47:39.227Z,8.61
2023-02-24T02:50:27.869Z,8.62
2023-02-24T02:53:03.845Z,8.58
2023-02-24T02:55:39.737Z,8.49
2023-02-24T02:58:15.631Z,8.40
2023-02-24T03:01:03.410Z,8.30
2023-02-24T03:03:41.380Z,8.20
2023-02-24T03:06:18.076Z,8.14
2023-02-24T03:09:02.135Z,8.13
2023-02-24T03:11:33.361Z,8.10
2023-02-24T03:14:03.641Z,8.08
2023-02-24T03:16:34.862Z,8.03
2023-02-24T03:19:09.986Z,7.98
2023-02-24T03:21:53.761Z,7.90
2023-02-24T03:24:22.003Z,7.87
2023-02-24T03:27:07.751Z,7.87
2023-02-24T03:29:51.565Z,7.92
2023-02-24T03:32:27.743Z,7.93
2023-02-24T03:35:05.357Z,7.91
2023-02-24T03:37:34.457Z,7.88
2023-02-24T03:40:15.317Z,7.86
2023-02-24T03:42:53.857Z,7.87
2023-02-24T03:45:24.004Z,7.86
2023-02-24T03:47:54.893Z,7.85
2023-02-24T03:50:23.642Z,7.86
2023-02-24T03:53:31.555Z,7.87
2023-02-24T03:56:18.534Z,7.87
2023-02-24T03:59:03.256Z,7.88
2023-02-24T04:01:43.320Z,7.87
2023-02-24T04:04:29.494Z,7.90
2023-02-24T04:07:36.601Z,7.91
2023-02-24T04:10:13.661Z,7.93
2023-02-24T04:13:29.297Z,7.95
2023-02-24T04:16:17.751Z,7.95
2023-02-24T04:18:51.936Z,7.94
2023-02-24T04:21:23.815Z,7.93
2023-02-24T04:23:52.778Z,7.92
2023-02-24T04:26:22.086Z,7.91
2023-02-24T04:28:53.103Z,7.92
2023-02-24T04:31:24.034Z,7.98
2023-02-24T04:33:54.162Z,7.99
2023-02-24T04:36:23.083Z,7.98
2023-02-24T04:38:51.339Z,7.96
2023-02-24T04:41:23.064Z,7.91
2023-02-24T04:43:51.983Z,7.86
2023-02-24T04:46:24.192Z,7.85
2023-02-24T04:48:52.446Z,7.82
2023-02-24T04:51:21.758Z,7.78
2023-02-24T04:53:51.232Z,7.75
2023-02-24T04:56:20.154Z,7.76
2023-02-24T04:58:48.337Z,7.75
2023-02-24T05:01:16.522Z,7.69
2023-02-24T05:03:44.735Z,7.62
2023-02-24T05:06:19.417Z,7.55
2023-02-24T05:08:48.128Z,7.48
2023-02-24T05:11:19.446Z,7.41
2023-02-24T05:13:48.150Z,7.37
2023-02-24T05:16:21.123Z,7.28
2023-02-24T05:18:50.430Z,7.20
2023-02-24T05:21:37.179Z,7.11
2023-02-24T05:24:07.450Z,7.06
2023-02-24T05:26:37.914Z,7.02
2023-02-24T05:29:07.678Z,7.01
2023-02-24T05:31:36.459Z,6.98
2023-02-24T05:34:08.520Z,7.01
2023-02-24T05:36:41.142Z,7.01
2023-02-24T05:39:13.488Z,7.01
2023-02-24T05:41:43.858Z,7.05
2023-02-24T05:44:29.251Z,7.10
2023-02-24T05:47:01.406Z,7.09
2023-02-24T05:49:34.679Z,7.09
2023-02-24T05:52:09.630Z,7.09
2023-02-24T05:54:46.134Z,7.13
2023-02-24T05:57:21.915Z,7.16
2023-02-24T05:59:51.809Z,7.21
2023-02-24T06:02:28.249Z,7.27
2023-02-24T06:04:56.629Z,7.28
2023-02-24T06:07:27.248Z,7.31
2023-02-24T06:09:58.087Z,7.34
2023-02-24T06:12:32.610Z,7.37
2023-02-24T06:15:01.212Z,7.38
2023-02-24T06:17:30.153Z,7.39
2023-02-24T06:19:58.689Z,7.42
2023-02-24T06:22:28.245Z,7.47
2023-02-24T06:24:57.659Z,7.49
2023-02-24T06:27:26.227Z,7.52
2023-02-24T06:29:55.841Z,7.54
2023-02-24T06:32:27.412Z,7.56
2023-02-24T06:34:58.009Z,7.53
2023-02-24T06:37:26.326Z,7.47
2023-02-24T06:39:54.825Z,7.41
2023-02-24T06:42:23.680Z,7.34
2023-02-24T06:44:52.031Z,7.32
2023-02-24T06:47:20.389Z,7.24
2023-02-24T06:49:50.570Z,7.16
2023-02-24T06:52:19.594Z,7.12
2023-02-24T06:54:50.475Z,7.04
2023-02-24T06:57:18.823Z,6.99
2023-02-24T06:59:47.026Z,6.96
2023-02-24T07:02:18.447Z,6.93
2023-02-24T07:04:46.791Z,6.90
2023-02-24T07:07:15.170Z,6.83
2023-02-24T07:09:46.162Z,6.78
2023-02-24T07:12:21.733Z,6.82
2023-02-24T07:14:51.214Z,6.75
2023-02-24T07:17:24.134Z,6.70
2023-02-24T07:19:55.404Z,6.70
2023-02-24T07:22:25.950Z,6.68
2023-02-24T07:25:01.104Z,6.66
2023-02-24T07:27:29.408Z,6.67
2023-02-24T07:29:57.664Z,6.73
2023-02-24T07:32:26.352Z,6.71
2023-02-24T07:34:54.603Z,6.71
2023-02-24T07:37:24.432Z,6.67
2023-02-24T07:39:52.760Z,6.65
2023-02-24T07:42:21.065Z,6.64
2023-02-24T07:44:49.931Z,6.62
2023-02-24T07:47:18.378Z,6.61
2023-02-24T07:49:46.664Z,6.64
2023-02-24T07:52:14.990Z,6.65
2023-02-24T07:54:43.174Z,6.62
2023-02-24T07:57:14.550Z,6.60
2023-02-24T07:59:46.009Z,6.60
2023-02-24T08:02:14.685Z,6.59
2023-02-24T08:04:49.371Z,6.62
2023-02-24T08:07:25.554Z,6.61
2023-02-24T08:10:12.618Z,6.60
2023-02-24T08:12:43.874Z,6.58
2023-02-24T08:15:24.539Z,6.57
2023-02-24T08:17:57.467Z,6.59
2023-02-24T08:20:28.206Z,6.61
2023-02-24T08:22:57.292Z,6.62
2023-02-24T08:25:39.022Z,6.60
2023-02-24T08:28:12.322Z,6.58
2023-02-24T08:30:48.135Z,6.57
2023-02-24T08:33:22.834Z,6.59
2023-02-24T08:36:02.753Z,6.58
2023-02-24T08:38:42.652Z,6.60
2023-02-24T08:41:18.689Z,6.61
2023-02-24T08:43:48.488Z,6.63
2023-02-24T08:46:22.127Z,6.63
2023-02-24T08:48:58.639Z,6.65
2023-02-24T08:51:30.148Z,6.66
2023-02-24T08:54:01.446Z,6.71
2023-02-24T08:56:35.324Z,6.70
2023-02-24T08:59:07.582Z,6.72
2023-02-24T09:01:41.048Z,6.74
2023-02-24T09:04:19.868Z,6.74
2023-02-24T09:07:10.779Z,6.72
2023-02-24T09:09:43.004Z,6.73
2023-02-24T09:12:22.663Z,6.74
2023-02-24T09:14:56.290Z,6.73
2023-02-24T09:17:46.275Z,6.73
2023-02-24T09:20:39.526Z,6.74
2023-02-24T09:23:10.631Z,6.72
2023-02-24T09:25:41.841Z,6.74
2023-02-24T09:28:20.768Z,6.68
2023-02-24T09:30:54.565Z,6.63
2023-02-24T09:33:42.324Z,6.61
2023-02-24T09:36:28.803Z,6.63
2023-02-24T09:39:02.451Z,6.67
2023-02-24T09:41:54.849Z,6.67
2023-02-24T09:44:49.324Z,6.64
2023-02-24T09:47:41.202Z,6.64
2023-02-24T09:50:59.673Z,6.63
2023-02-24T09:53:20.116Z,6.57
2023-02-24T09:56:01.306Z,6.55
2023-02-24T09:58:54.973Z,6.52
2023-02-24T10:01:40.562Z,6.55
2023-02-24T10:04:41.460Z,6.55
2023-02-24T10:07:28.897Z,6.58
2023-02-24T10:10:20.594Z,6.56
2023-02-24T10:12:53.491Z,6.55
2023-02-24T10:15:46.674Z,6.51
2023-02-24T10:18:32.086Z,6.44
2023-02-24T10:21:49.682Z,6.46
2023-02-24T10:24:30.115Z,6.49
2023-02-24T10:27:09.401Z,6.46
2023-02-24T10:30:06.546Z,6.45
2023-02-24T10:33:09.564Z,6.39
2023-02-24T10:35:38.649Z,6.35
2023-02-24T10:38:07.039Z,6.36
2023-02-24T10:40:47.607Z,6.35
2023-02-24T10:43:21.329Z,6.32
2023-02-24T10:45:49.969Z,6.30
2023-02-24T10:48:40.545Z,6.27
2023-02-24T10:51:32.750Z,6.22
2023-02-24T10:54:44.610Z,6.16
2023-02-24T10:57:34.758Z,6.05
2023-02-24T11:00:06.882Z,5.98
2023-02-24T11:03:02.312Z,5.87
2023-02-24T11:06:08.159Z,5.78
2023-02-24T11:08:45.062Z,5.70
2023-02-24T11:11:31.603Z,5.63
2023-02-24T11:14:21.757Z,5.57
2023-02-24T11:17:14.894Z,5.50
2023-02-24T11:19:51.431Z,5.44
2023-02-24T11:22:25.701Z,5.39
2023-02-24T11:24:54.684Z,5.39
2023-02-24T11:27:27.288Z,5.38
2023-02-24T11:30:22.910Z,5.36
2023-02-24T11:33:09.373Z,5.41
2023-02-24T11:36:06.466Z,5.44
2023-02-24T11:38:44.185Z,5.45
2023-02-24T11:41:28.473Z,5.45
2023-02-24T11:44:05.005Z,5.42
2023-02-24T11:46:48.231Z,5.43
2023-02-24T11:49:44.326Z,5.39
2023-02-24T11:52:35.978Z,5.40
2023-02-24T11:55:13.511Z,5.39
2023-02-24T11:57:51.459Z,5.40
2023-02-24T12:00:22.451Z,5.40
2023-02-24T12:03:07.904Z,5.43
2023-02-24T12:05:42.912Z,5.42
2023-02-24T12:08:27.241Z,5.42
2023-02-24T12:11:23.096Z,5.42
2023-02-24T12:14:36.083Z,5.41
2023-02-24T12:17:11.425Z,5.39
2023-02-24T12:19:52.522Z,5.40
2023-02-24T12:22:20.790Z,5.40
2023-02-24T12:24:52.430Z,5.34
2023-02-24T12:27:47.292Z,5.30
2023-02-24T12:30:58.367Z,5.28
2023-02-24T12:33:43.780Z,5.27
2023-02-24T12:36:44.508Z,5.22
2023-02-24T12:39:30.631Z,5.20
2023-02-24T12:42:21.926Z,5.17
2023-02-24T12:45:18.592Z,5.15
2023-02-24T12:48:11.475Z,5.12
2023-02-24T12:51:04.884Z,5.10
2023-02-24T12:53:35.892Z,5.13
2023-02-24T12:56:20.217Z,5.14
2023-02-24T12:58:53.873Z,5.09
2023-02-24T13:01:45.117Z,5.04
2023-02-24T13:04:22.408Z,5.01
2023-02-24T13:07:05.896Z,4.97
2023-02-24T13:10:01.492Z,4.91
2023-02-24T13:12:40.892Z,4.88
2023-02-24T13:15:20.885Z,4.85
2023-02-24T13:17:52.436Z,4.86
2023-02-24T13:20:31.336Z,4.90
2023-02-24T13:23:01.040Z,4.85
2023-02-24T13:25:38.099Z,4.83
2023-02-24T13:28:23.672Z,4.83
2023-02-24T13:31:06.084Z,4.81
2023-02-24T13:33:40.373Z,4.79
2023-02-24T13:36:22.452Z,4.77
2023-02-24T13:39:07.665Z,4.81
2023-02-24T13:41:41.929Z,4.84
2023-02-24T13:44:27.018Z,4.87
2023-02-24T13:47:16.630Z,4.86
2023-02-24T13:49:57.885Z,4.88
2023-02-24T13:52:55.876Z,4.88
2023-02-24T13:55:50.264Z,4.90
2023-02-24T13:58:26.659Z,4.92
2023-02-24T14:01:14.938Z,4.92
2023-02-24T14:03:50.869Z,4.95
2023-02-24T14:06:27.595Z,4.97
2023-02-24T14:09:04.457Z,5.03
2023-02-24T14:11:37.634Z,5.10
2023-02-24T14:14:06.712Z,5.14
2023-02-24T14:16:40.578Z,5.18
2023-02-24T14:19:17.104Z,5.20
2023-02-24T14:21:52.391Z,5.24
2023-02-24T14:24:21.502Z,5.30
2023-02-24T14:26:58.389Z,5.33
2023-02-24T14:29:38.368Z,5.35
2023-02-24T14:32:22.461Z,5.39
2023-02-24T14:34:51.398Z,5.40
2023-02-24T14:37:25.197Z,5.40
2023-02-24T14:39:59.028Z,5.42
2023-02-24T14:42:28.840Z,5.40
2023-02-24T14:44:59.504Z,5.42
2023-02-24T14:47:29.677Z,5.46
2023-02-24T14:50:00.873Z,5.47
2023-02-24T14:52:43.906Z,5.51
2023-02-24T14:55:22.185Z,5.53
2023-02-24T14:57:58.862Z,5.54
2023-02-24T15:01:07.311Z,5.52
2023-02-24T15:03:51.145Z,5.48
2023-02-24T15:06:33.171Z,5.48
2023-02-24T15:09:08.813Z,5.47
2023-02-24T15:11:38.139Z,5.44
2023-02-24T15:14:19.381Z,5.46
2023-02-24T15:16:52.482Z,5.50
2023-02-24T15:19:44.943Z,5.54
2023-02-24T15:22:35.469Z,5.52
2023-02-24T15:25:33.822Z,5.53
2023-02-24T15:28:22.357Z,5.44
2023-02-24T15:31:11.043Z,5.42
2023-02-24T15:33:54.016Z,5.41
2023-02-24T15:36:35.066Z,5.39
2023-02-24T15:39:11.431Z,5.45
2023-02-24T15:41:43.171Z,5.48
2023-02-24T15:44:31.863Z,5.47
2023-02-24T15:47:02.204Z,5.49
2023-02-24T15:49:30.437Z,5.52
2023-02-24T15:52:02.128Z,5.54
2023-02-24T15:54:37.570Z,5.61
2023-02-24T15:57:06.564Z,5.66
2023-02-24T15:59:34.865Z,5.72
2023-02-24T16:02:03.136Z,5.77
2023-02-24T16:04:31.384Z,5.82
2023-02-24T16:06:59.619Z,5.88
2023-02-24T16:09:39.283Z,5.96
2023-02-24T16:12:16.267Z,6.00
2023-02-24T16:14:46.142Z,6.03
2023-02-24T16:17:43.984Z,6.09
2023-02-24T16:20:18.728Z,6.10
2023-02-24T16:22:46.566Z,6.16
2023-02-24T16:25:17.722Z,6.22
2023-02-24T16:27:46.066Z,6.32
2023-02-24T16:30:22.751Z,6.39
2023-02-24T16:32:51.496Z,6.51
2023-02-24T16:35:20.422Z,6.61
2023-02-24T16:37:49.311Z,6.66
2023-02-24T16:40:31.607Z,6.72
2023-02-24T16:42:59.839Z,6.75
2023-02-24T16:45:29.816Z,6.73
2023-02-24T16:48:03.054Z,6.75
2023-02-24T16:50:35.973Z,6.85
2023-02-24T16:53:04.253Z,6.92
2023-02-24T16:55:32.898Z,6.96
2023-02-24T16:58:01.199Z,6.98
2023-02-24T17:00:29.458Z,7.05
2023-02-24T17:02:57.935Z,7.10
2023-02-24T17:05:28.980Z,7.19
2023-02-24T17:07:58.342Z,7.24
2023-02-24T17:10:26.962Z,7.29
2023-02-24T17:12:55.214Z,7.38
2023-02-24T17:15:25.179Z,7.43
2023-02-24T17:17:53.564Z,7.49
2023-02-24T17:20:23.060Z,7.53
2023-02-24T17:22:51.586Z,7.55
2023-02-24T17:25:28.847Z,7.59
2023-02-24T17:27:57.904Z,7.63
2023-02-24T17:30:29.285Z,7.60
2023-02-24T17:32:58.300Z,7.56
2023-02-24T17:35:26.899Z,7.50
2023-02-24T17:37:55.540Z,7.42
2023-02-24T17:40:24.121Z,7.38
2023-02-24T17:42:52.421Z,7.31
2023-02-24T17:45:21.124Z,7.32
2023-02-24T17:47:49.774Z,7.37
2023-02-24T17:50:18.096Z,7.45
2023-02-24T17:52:46.514Z,7.52
2023-02-24T17:55:15.111Z,7.55
2023-02-24T17:57:44.180Z,7.56
2023-02-24T18:00:13.598Z,7.59
2023-02-24T18:02:42.325Z,7.61
2023-02-24T18:05:11.239Z,7.58
2023-02-24T18:07:39.659Z,7.62
2023-02-24T18:10:08.878Z,7.66
2023-02-24T18:12:37.256Z,7.64
2023-02-24T18:15:09.472Z,7.64
2023-02-24T18:17:39.445Z,7.63
2023-02-24T18:20:09.912Z,7.63
2023-02-24T18:22:38.141Z,7.62
2023-02-24T18:25:07.092Z,7.63
2023-02-24T18:27:35.277Z,7.68
2023-02-24T18:30:04.419Z,7.68
2023-02-24T18:32:32.849Z,7.67
2023-02-24T18:35:01.238Z,7.67
2023-02-24T18:37:29.460Z,7.68
2023-02-24T18:39:57.699Z,7.74
2023-02-24T18:42:26.479Z,7.78
2023-02-24T18:44:54.692Z,7.79
2023-02-24T18:47:22.917Z,7.79
2023-02-24T18:49:51.140Z,7.75
2023-02-24T18:52:19.350Z,7.76
2023-02-24T18:54:49.487Z,7.81
2023-02-24T18:57:17.729Z,7.87
2023-02-24T18:59:46.162Z,7.92
2023-02-24T19:02:14.522Z,7.99
2023-02-24T19:04:42.882Z,8.06
2023-02-24T19:07:11.116Z,8.14
2023-02-24T19:09:41.637Z,8.28
2023-02-24T19:12:10.480Z,8.40
2023-02-24T19:14:38.779Z,8.56
2023-02-24T19:17:07.132Z,8.72
2023-02-24T19:19:35.462Z,8.85
2023-02-24T19:22:03.697Z,9.01
2023-02-24T19:24:32.984Z,9.04
2023-02-24T19:27:01.408Z,9.04
2023-02-24T19:29:30.970Z,9.01
2023-02-24T19:31:59.471Z,8.99
2023-02-24T19:34:27.829Z,8.92
2023-02-24T19:36:56.076Z,8.82
2023-02-24T19:39:24.281Z,8.75
2023-02-24T19:41:54.057Z,8.64
2023-02-24T19:44:22.306Z,8.54
2023-02-24T19:46:50.574Z,8.49
2023-02-24T19:49:18.832Z,8.53
2023-02-24T19:51:48.335Z,8.59
2023-02-24T19:54:17.078Z,8.71
2023-02-24T19:56:45.308Z,8.87
2023-02-24T19:59:13.546Z,9.00
2023-02-24T20:01:42.716Z,9.15
2023-02-24T20:04:11.476Z,9.30
2023-02-24T20:06:42.015Z,9.41
2023-02-24T20:09:15.921Z,9.59
2023-02-24T20:11:45.769Z,9.68
2023-02-24T20:14:15.601Z,9.70
2023-02-24T20:16:44.811Z,9.70
2023-02-24T20:19:14.653Z,9.63
2023-02-24T20:21:43.596Z,9.57
2023-02-24T20:24:16.141Z,9.63
2023-02-24T20:26:52.849Z,9.66
2023-02-24T20:29:22.621Z,9.75
2023-02-24T20:31:51.357Z,9.73
2023-02-24T20:34:19.892Z,9.78
2023-02-24T20:36:48.140Z,9.80
2023-02-24T20:39:16.399Z,9.78
2023-02-24T20:41:45.029Z,9.77
2023-02-24T20:44:13.494Z,9.77
2023-02-24T20:46:41.834Z,9.70
2023-02-24T20:49:15.460Z,9.69
2023-02-24T20:51:44.447Z,9.66
2023-02-24T20:54:14.567Z,9.62
2023-02-24T20:56:44.928Z,9.62
2023-02-24T20:59:18.997Z,9.64
2023-02-24T21:01:48.387Z,9.66
2023-02-24T21:04:20.063Z,9.76
2023-02-24T21:06:49.301Z,9.78
2023-02-24T21:09:17.678Z,9.82
2023-02-24T21:11:45.934Z,9.84
2023-02-24T21:14:17.142Z,9.90
2023-02-24T21:16:46.937Z,9.97
2023-02-24T21:19:15.289Z,10.00
2023-02-24T21:21:43.473Z,10.04
2023-02-24T21:24:11.695Z,10.13
2023-02-24T21:26:39.943Z,10.20
2023-02-24T21:29:08.621Z,10.20
2023-02-24T21:31:36.975Z,10.18
2023-02-24T21:34:05.340Z,10.14
2023-02-24T21:36:33.592Z,10.10
2023-02-24T21:39:01.777Z,10.13
2023-02-24T21:41:30.063Z,10.18
2023-02-24T21:44:01.309Z,10.27
2023-02-24T21:46:29.860Z,10.30
2023-02-24T21:49:01.542Z,10.44
2023-02-24T21:51:30.296Z,10.58
2023-02-24T21:53:59.359Z,10.69
2023-02-24T21:56:31.475Z,10.74
2023-02-24T21:59:02.779Z,10.79
2023-02-24T22:01:31.059Z,10.85
2023-02-24T22:04:02.140Z,10.89
2023-02-24T22:06:31.974Z,10.92
2023-02-24T22:09:02.134Z,10.89
2023-02-24T22:11:38.099Z,10.88
2023-02-24T22:14:12.355Z,10.85
2023-02-24T22:16:41.932Z,10.84
2023-02-24T22:19:10.566Z,10.90
2023-02-24T22:21:40.416Z,10.89
2023-02-24T22:24:09.815Z,10.91
2023-02-24T22:26:38.096Z,10.92
2023-02-24T22:29:06.412Z,11.07
2023-02-24T22:31:35.997Z,11.08
2023-02-24T22:34:05.251Z,11.23
2023-02-24T22:36:37.656Z,11.29
2023-02-24T22:39:07.394Z,11.37
2023-02-24T22:41:37.164Z,11.60
2023-02-24T22:44:07.260Z,11.78
2023-02-24T22:46:38.881Z,12.30
2023-02-24T22:49:07.683Z,12.19
2023-02-24T22:51:36.399Z,12.10
2023-02-24T22:54:05.877Z,12.37
2023-02-24T22:56:34.257Z,12.72
2023-02-24T22:59:02.524Z,12.65
2023-02-24T23:01:36.922Z,12.20
2023-02-24T23:04:08.300Z,12.09
2023-02-24T23:06:37.875Z,12.50
2023-02-24T23:09:08.125Z,12.44
2023-02-24T23:11:40.216Z,12.48
2023-02-24T23:14:14.539Z,12.79
2023-02-24T23:16:47.429Z,12.89
2023-02-24T23:19:18.688Z,12.91
2023-02-24T23:21:50.628Z,13.00
2023-02-24T23:24:19.739Z,13.01
2023-02-24T23:26:58.421Z,12.74
2023-02-24T23:29:27.791Z,12.40
2023-02-24T23:31:56.152Z,12.15
2023-02-24T23:34:25.491Z,11.82
2023-02-24T23:36:53.701Z,11.50
2023-02-24T23:39:24.420Z,11.31
2023-02-24T23:41:57.110Z,11.26
2023-02-24T23:44:26.427Z,11.28
2023-02-24T23:46:55.109Z,11.28
2023-02-24T23:49:23.330Z,11.27
2023-02-24T23:51:51.594Z,11.23
2023-02-24T23:54:21.183Z,11.17
2023-02-24T23:56:49.964Z,11.02
2023-02-24T23:59:18.288Z,10.99
